createdAt,value
2023-02-26T00:04:18.691Z,29.58
2023-02-26T00:09:40.429Z,29.41
2023-02-26T00:15:03.057Z,29.90
2023-02-26T00:20:26.187Z,29.72
2023-02-26T00:25:48.172Z,29.55
2023-02-26T00:31:10.552Z,29.65
2023-02-26T00:36:45.732Z,29.94
2023-02-26T00:42:07.837Z,29.79
2023-02-26T00:47:44.366Z,29.84
2023-02-26T00:53:27.249Z,29.68
2023-02-26T00:58:49.001Z,30.17
2023-02-26T01:04:12.246Z,30.10
2023-02-26T01:09:36.556Z,29.86
2023-02-26T01:14:58.659Z,30.17
2023-02-26T01:20:27.234Z,29.82
2023-02-26T01:25:52.043Z,30.13
2023-02-26T01:31:50.391Z,29.85
2023-02-26T01:37:36.493Z,30.07
2023-02-26T01:43:04.926Z,29.94
2023-02-26T01:48:49.779Z,29.78
2023-02-26T01:54:12.368Z,29.87
2023-02-26T01:59:37.152Z,29.85
2023-02-26T02:05:07.305Z,29.67
2023-02-26T02:10:29.908Z,29.94
2023-02-26T02:16:00.230Z,30.01
2023-02-26T02:21:51.289Z,29.98
2023-02-26T02:27:28.521Z,30.01
2023-02-26T02:33:18.997Z,29.90
2023-02-26T02:38:49.847Z,29.63
2023-02-26T02:44:16.496Z,29.48
2023-02-26T02:49:45.073Z,29.63
2023-02-26T02:55:13.443Z,29.58
2023-02-26T03:00:45.882Z,29.69
2023-02-26T03:06:08.068Z,29.75
2023-02-26T03:11:30.272Z,29.23
2023-02-26T03:17:01.260Z,29.23
2023-02-26T03:22:28.914Z,29.26
2023-02-26T03:28:06.218Z,29.04
2023-02-26T03:33:38.606Z,29.31
2023-02-26T03:39:11.171Z,29.24
2023-02-26T03:44:37.702Z,28.90
2023-02-26T03:50:05.271Z,28.93
2023-02-26T03:55:42.495Z,29.04
2023-02-26T04:01:12.610Z,28.78
2023-02-26T04:06:34.975Z,28.81
2023-02-26T04:11:58.585Z,29.17
2023-02-26T04:17:20.243Z,29.13
2023-02-26T04:22:41.978Z,29.17
2023-02-26T04:28:04.515Z,29.03
2023-02-26T04:33:27.602Z,29.07
2023-02-26T04:38:49.764Z,28.76
2023-02-26T04:44:11.521Z,29.13
2023-02-26T04:49:33.427Z,28.86
2023-02-26T04:54:55.111Z,28.81
2023-02-26T05:00:17.779Z,28.75
2023-02-26T05:05:39.466Z,28.79
2023-02-26T05:11:01.211Z,28.75
2023-02-26T05:16:23.087Z,28.48
2023-02-26T05:21:44.963Z,28.53
2023-02-26T05:27:09.630Z,28.93
2023-02-26T05:32:31.594Z,28.56
2023-02-26T05:37:53.313Z,28.69
2023-02-26T05:43:15.216Z,28.87
2023-02-26T05:48:37.045Z,28.87
2023-02-26T05:53:58.907Z,28.73
2023-02-26T05:59:20.703Z,28.77
2023-02-26T06:04:42.514Z,28.88
2023-02-26T06:10:05.883Z,28.96
2023-02-26T06:15:27.723Z,28.99
2023-02-26T06:20:49.468Z,28.79
2023-02-26T06:26:11.283Z,28.84
2023-02-26T06:31:33.330Z,29.12
2023-02-26T06:36:55.075Z,29.00
2023-02-26T06:42:18.480Z,29.15
2023-02-26T06:47:41.742Z,28.94
2023-02-26T06:53:04.097Z,28.30
2023-02-26T06:58:26.062Z,28.24
2023-02-26T07:03:48.014Z,27.85
2023-02-26T07:09:09.826Z,27.52
2023-02-26T07:14:31.772Z,27.30
2023-02-26T07:19:53.715Z,26.92
2023-02-26T07:25:15.580Z,27.11
2023-02-26T07:30:37.386Z,26.34
2023-02-26T07:35:59.659Z,26.52
2023-02-26T07:41:21.390Z,27.00
2023-02-26T07:46:43.132Z,26.67
2023-02-26T07:52:05.775Z,27.11
2023-02-26T07:57:27.534Z,26.70
2023-02-26T08:02:49.558Z,26.67
2023-02-26T08:08:11.452Z,26.64
2023-02-26T08:13:34.198Z,25.95
2023-02-26T08:18:55.946Z,25.25
2023-02-26T08:24:17.786Z,24.66
2023-02-26T08:29:39.663Z,23.49
2023-02-26T08:35:01.808Z,22.95
2023-02-26T08:40:23.876Z,21.96
2023-02-26T08:45:46.758Z,21.21
2023-02-26T08:51:08.763Z,21.25
2023-02-26T08:56:31.948Z,21.05
2023-02-26T09:01:53.814Z,21.56
2023-02-26T09:07:15.785Z,21.84
2023-02-26T09:12:37.964Z,22.82
2023-02-26T09:18:00.214Z,23.00
2023-02-26T09:23:21.995Z,23.33
2023-02-26T09:28:43.963Z,23.43
2023-02-26T09:34:06.054Z,24.00
2023-02-26T09:39:27.864Z,23.90
2023-02-26T09:44:51.552Z,24.11
2023-02-26T09:50:22.822Z,24.11
2023-02-26T09:55:50.829Z,24.23
2023-02-26T10:01:38.350Z,24.70
2023-02-26T10:07:32.552Z,24.94
2023-02-26T10:12:55.122Z,25.02
2023-02-26T10:18:24.041Z,24.26
2023-02-26T10:23:59.343Z,24.02
2023-02-26T10:29:28.683Z,24.56
2023-02-26T10:35:01.306Z,25.26
2023-02-26T10:40:50.013Z,25.48
2023-02-26T10:46:53.453Z,25.55
2023-02-26T10:52:18.463Z,25.55
2023-02-26T10:57:50.420Z,25.78
2023-02-26T11:03:19.642Z,25.98
2023-02-26T11:08:45.432Z,26.74
2023-02-26T11:14:08.695Z,27.48
2023-02-26T11:19:45.846Z,27.72
2023-02-26T11:25:13.315Z,27.04
2023-02-26T11:30:44.372Z,26.97
2023-02-26T11:36:16.158Z,27.05
2023-02-26T11:41:39.840Z,26.68
2023-02-26T11:47:06.938Z,26.61
2023-02-26T11:52:43.322Z,26.88
2023-02-26T11:58:18.082Z,26.71
2023-02-26T12:03:44.389Z,26.99
2023-02-26T12:09:12.675Z,26.63
2023-02-26T12:14:50.410Z,26.61
2023-02-26T12:20:27.586Z,27.23
2023-02-26T12:26:04.218Z,27.36
2023-02-26T12:31:32.104Z,27.33
2023-02-26T12:37:21.460Z,27.43
2023-02-26T12:43:07.191Z,27.66
2023-02-26T12:48:35.287Z,27.69
2023-02-26T12:54:30.127Z,27.70
2023-02-26T13:00:13.750Z,27.99
2023-02-26T13:06:20.048Z,28.40
2023-02-26T13:11:54.921Z,28.43
2023-02-26T13:17:34.960Z,28.35
2023-02-26T13:23:52.230Z,28.44
2023-02-26T13:29:21.885Z,28.35
2023-02-26T13:35:08.232Z,28.50
2023-02-26T13:40:52.650Z,28.65
2023-02-26T13:46:17.556Z,28.51
2023-02-26T13:51:42.899Z,28.26
2023-02-26T14:02:43.554Z,28.13
2023-02-26T14:08:25.989Z,28.44
2023-02-26T14:14:10.861Z,28.23
2023-02-26T14:19:42.348Z,28.37
2023-02-26T14:25:18.254Z,28.63
2023-02-26T14:30:47.610Z,28.63
2023-02-26T14:36:18.637Z,28.21
2023-02-26T14:41:41.766Z,28.39
2023-02-26T14:47:04.376Z,27.58
2023-02-26T14:53:03.267Z,27.63
2023-02-26T14:58:38.361Z,26.69
2023-02-26T15:04:09.035Z,26.46
2023-02-26T15:09:36.539Z,26.44
2023-02-26T15:15:27.062Z,26.18
2023-02-26T15:21:36.564Z,25.63
2023-02-26T15:27:02.534Z,25.59
2023-02-26T15:32:26.028Z,25.45
2023-02-26T15:37:57.902Z,25.33
2023-02-26T15:43:26.790Z,25.36
2023-02-26T15:48:48.978Z,25.59
2023-02-26T15:54:17.880Z,25.49
2023-02-26T15:59:51.066Z,25.47
2023-02-26T16:05:14.928Z,25.81
2023-02-26T16:10:43.056Z,25.86
2023-02-26T16:16:12.410Z,25.88
2023-02-26T16:21:38.626Z,25.46
2023-02-26T16:27:07.148Z,25.25
2023-02-26T16:32:32.034Z,25.13
2023-02-26T16:37:55.778Z,25.14
2023-02-26T16:43:23.525Z,24.93
2023-02-26T16:48:56.312Z,24.68
2023-02-26T16:54:27.549Z,24.64
2023-02-26T17:00:01.569Z,24.85
2023-02-26T17:05:26.346Z,24.44
2023-02-26T17:10:55.302Z,24.61
2023-02-26T17:16:17.087Z,24.38
2023-02-26T17:21:54.198Z,24.21
2023-02-26T17:27:44.600Z,24.59
2023-02-26T17:33:08.045Z,24.60
2023-02-26T17:38:30.147Z,24.14
2023-02-26T17:43:52.046Z,24.82
2023-02-26T17:49:14.399Z,24.68
2023-02-26T17:54:36.098Z,24.99
2023-02-26T17:59:57.810Z,24.78
2023-02-26T18:05:20.416Z,24.91
2023-02-26T18:10:42.117Z,25.20
2023-02-26T18:16:05.231Z,25.73
2023-02-26T18:21:28.580Z,25.49
2023-02-26T18:26:51.675Z,26.19
2023-02-26T18:32:15.205Z,26.24
2023-02-26T18:37:36.944Z,25.89
2023-02-26T18:42:58.835Z,25.68
2023-02-26T18:48:21.376Z,25.37
2023-02-26T18:53:43.118Z,25.06
2023-02-26T18:59:06.011Z,24.63
2023-02-26T19:04:28.592Z,24.12
2023-02-26T19:09:50.418Z,24.43
2023-02-26T19:15:13.049Z,24.43
2023-02-26T19:20:36.146Z,24.69
2023-02-26T19:25:58.323Z,25.28
2023-02-26T19:31:20.118Z,25.63
2023-02-26T19:36:48.273Z,25.77
2023-02-26T19:42:11.143Z,26.35
2023-02-26T19:47:32.850Z,26.23
2023-02-26T19:52:55.225Z,26.31
2023-02-26T19:58:19.696Z,25.80
2023-02-26T20:03:41.545Z,26.33
2023-02-26T20:09:04.728Z,26.33
2023-02-26T20:14:26.471Z,25.89
2023-02-26T20:19:48.544Z,25.77
2023-02-26T20:25:10.456Z,25.65
2023-02-26T20:30:32.980Z,25.63
2023-02-26T20:35:55.026Z,25.56
2023-02-26T20:41:17.104Z,25.07
2023-02-26T20:46:39.125Z,25.33
2023-02-26T20:52:00.965Z,25.13
2023-02-26T20:57:22.709Z,25.25
2023-02-26T21:02:45.325Z,25.47
2023-02-26T21:08:07.675Z,25.62
2023-02-26T21:13:29.540Z,25.79
2023-02-26T21:18:51.355Z,26.12
2023-02-26T21:24:13.111Z,26.00
2023-02-26T21:29:34.844Z,25.71
2023-02-26T21:34:59.071Z,25.76
2023-02-26T21:40:21.200Z,26.08
2023-02-26T21:45:44.622Z,26.02
2023-02-26T21:51:06.942Z,26.01
2023-02-26T21:56:28.919Z,26.08
2023-02-26T22:01:52.151Z,26.16
2023-02-26T22:07:14.025Z,26.29
2023-02-26T22:12:35.964Z,26.52
2023-02-26T22:17:57.817Z,26.61
2023-02-26T22:23:20.398Z,26.57
2023-02-26T22:28:42.062Z,26.51
2023-02-26T22:34:03.896Z,27.00
2023-02-26T22:39:25.595Z,26.89
2023-02-26T22:44:47.333Z,26.95
2023-02-26T22:50:09.754Z,27.34
2023-02-26T22:55:31.538Z,27.09
2023-02-26T23:01:05.522Z,27.41
2023-02-26T23:06:27.335Z,27.01
2023-02-26T23:11:49.209Z,27.37
2023-02-26T23:17:11.732Z,27.40
2023-02-26T23:22:33.529Z,27.60
2023-02-26T23:27:55.448Z,27.26
2023-02-26T23:33:17.176Z,27.22
2023-02-26T23:38:40.002Z,27.13
2023-02-26T23:44:01.796Z,27.15
2023-02-26T23:49:23.744Z,27.42
2023-02-26T23:54:45.387Z,27.13
